createdAt,value
2017-11-03T00:00:03.484Z,30.10
2017-11-03T00:02:33.869Z,24.67
2017-11-03T00:05:04.257Z,34.40
2017-11-03T00:07:34.888Z,27.53
2017-11-03T00:10:05.304Z,23.47
2017-11-03T00:12:35.742Z,23.90
2017-11-03T00:15:06.120Z,27.13
2017-11-03T00:17:37.313Z,24.40
2017-11-03T00:20:07.705Z,24.93
2017-11-03T00:22:38.857Z,23.60
2017-11-03T00:25:09.251Z,34.70
2017-11-03T00:27:39.698Z,25.90
2017-11-03T00:30:10.838Z,31.80
2017-11-03T00:32:42.039Z,20.03
2017-11-03T00:35:12.514Z,29.30
2017-11-03T00:37:44.021Z,20.80
2017-11-03T00:40:14.410Z,23.33
2017-11-03T00:42:44.838Z,22.90
2017-11-03T00:45:15.311Z,26.87
2017-11-03T00:47:45.751Z,24.57
2017-11-03T00:50:16.713Z,26.33
2017-11-03T00:52:47.870Z,23.07
2017-11-03T00:55:18.732Z,24.80
2017-11-03T00:57:49.137Z,27.70
2017-11-03T01:00:19.506Z,39.93
2017-11-03T01:02:49.879Z,21.73
2017-11-03T01:05:20.278Z,26.20
2017-11-03T01:07:51.737Z,25.37
2017-11-03T01:10:22.918Z,22.33
2017-11-03T01:12:53.334Z,32.20
2017-11-03T01:15:23.732Z,25.23
2017-11-03T01:17:54.917Z,22.80
2017-11-03T01:20:25.740Z,20.73
2017-11-03T01:22:56.137Z,23.07
2017-11-03T01:25:27.616Z,26.07
2017-11-03T01:28:00.986Z,27.47
2017-11-03T01:30:32.176Z,20.97
2017-11-03T01:33:02.571Z,32.50
2017-11-03T01:35:32.964Z,40.17
2017-11-03T01:38:03.727Z,21.80
2017-11-03T01:40:34.129Z,17.80
2017-11-03T01:43:04.531Z,25.60
2017-11-03T01:45:34.921Z,30.80
2017-11-03T01:48:05.331Z,33.00
2017-11-03T01:50:36.806Z,20.70
2017-11-03T01:53:07.187Z,22.27
2017-11-03T01:55:38.004Z,25.80
2017-11-03T01:58:08.396Z,22.27
2017-11-03T02:00:38.806Z,21.60
2017-11-03T02:03:09.194Z,20.57
2017-11-03T02:05:39.596Z,19.67
2017-11-03T02:08:10.527Z,23.40
2017-11-03T02:10:40.886Z,27.17
2017-11-03T02:13:11.271Z,18.07
2017-11-03T02:15:41.673Z,18.30
2017-11-03T02:18:12.082Z,18.57
2017-11-03T02:20:43.368Z,22.63
2017-11-03T02:23:13.782Z,23.00
2017-11-03T02:25:45.232Z,17.20
2017-11-03T02:28:15.636Z,33.67
2017-11-03T02:30:46.803Z,15.60
2017-11-03T02:33:17.304Z,22.77
2017-11-03T02:35:48.495Z,24.60
2017-11-03T02:38:19.387Z,19.90
2017-11-03T02:40:49.791Z,22.03
2017-11-03T02:43:20.642Z,24.63
2017-11-03T02:45:51.784Z,22.30
2017-11-03T02:48:22.952Z,21.30
2017-11-03T02:50:53.377Z,17.97
2017-11-03T02:53:24.734Z,19.83
2017-11-03T02:55:56.033Z,21.17
2017-11-03T02:58:26.486Z,17.73
2017-11-03T03:00:57.683Z,24.73
2017-11-03T03:03:28.073Z,25.60
2017-11-03T03:05:58.467Z,24.10
2017-11-03T03:08:30.126Z,23.67
2017-11-03T03:11:01.306Z,24.00
2017-11-03T03:13:32.228Z,21.23
2017-11-03T03:16:02.689Z,20.33
2017-11-03T03:18:33.137Z,17.80
2017-11-03T03:21:03.613Z,18.00
2017-11-03T03:23:34.045Z,20.70
2017-11-03T03:26:04.838Z,18.43
2017-11-03T03:28:35.185Z,22.37
2017-11-03T03:31:06.337Z,17.43
2017-11-03T03:33:36.732Z,12.10
2017-11-03T03:36:07.093Z,16.10
2017-11-03T03:38:37.874Z,12.60
2017-11-03T03:41:08.319Z,13.07
2017-11-03T03:43:39.212Z,10.70
2017-11-03T03:46:09.624Z,6.70
2017-11-03T03:48:40.151Z,7.00
2017-11-03T03:51:11.011Z,9.60
2017-11-03T03:53:41.414Z,6.57
2017-11-03T03:56:12.085Z,7.33
2017-11-03T03:58:42.771Z,6.37
2017-11-03T04:01:13.191Z,6.00
2017-11-03T04:03:44.349Z,9.97
2017-11-03T04:06:14.741Z,5.77
2017-11-03T04:08:45.902Z,6.03
2017-11-03T04:11:17.033Z,7.13
2017-11-03T04:13:48.530Z,6.27
2017-11-03T04:16:18.929Z,6.57
2017-11-03T04:18:49.313Z,5.77
2017-11-03T04:21:19.698Z,6.33
2017-11-03T04:23:50.118Z,7.47
2017-11-03T04:26:20.844Z,6.43
2017-11-03T04:28:51.222Z,10.03
2017-11-03T04:31:21.613Z,6.33
2017-11-03T04:33:52.013Z,8.47
2017-11-03T04:36:23.191Z,9.63
2017-11-03T04:38:53.635Z,6.83
2017-11-03T04:41:24.038Z,9.80
2017-11-03T04:43:54.883Z,8.13
2017-11-03T04:46:25.272Z,7.90
2017-11-03T04:48:56.470Z,9.73
2017-11-03T04:51:26.861Z,8.07
2017-11-03T04:53:57.270Z,8.50
2017-11-03T04:56:28.650Z,13.40
2017-11-03T04:58:59.059Z,8.20
2017-11-03T05:01:30.245Z,7.17
2017-11-03T05:04:00.649Z,8.50
2017-11-03T05:06:32.063Z,8.17
2017-11-03T05:09:03.231Z,8.07
2017-11-03T05:11:33.661Z,8.00
2017-11-03T05:14:04.352Z,6.53
2017-11-03T05:16:35.524Z,5.77
2017-11-03T05:19:05.901Z,8.03
2017-11-03T05:21:36.261Z,4.87
2017-11-03T05:24:07.395Z,4.60
2017-11-03T05:26:40.489Z,4.30
2017-11-03T05:29:11.671Z,3.03
2017-11-03T05:31:42.561Z,3.97
2017-11-03T05:34:13.743Z,4.43
2017-11-03T05:36:44.188Z,4.13
2017-11-03T05:39:14.592Z,4.03
2017-11-03T05:41:45.717Z,4.03
2017-11-03T05:44:17.030Z,3.33
2017-11-03T05:46:47.444Z,4.93
2017-11-03T05:49:17.847Z,4.10
2017-11-03T05:51:53.352Z,4.07
2017-11-03T05:54:24.517Z,4.13
2017-11-03T05:56:55.233Z,5.60
2017-11-03T05:59:26.374Z,8.57
2017-11-03T06:01:58.054Z,4.30
2017-11-03T06:04:28.703Z,3.23
2017-11-03T06:06:59.128Z,3.90
2017-11-03T06:09:29.526Z,3.60
2017-11-03T06:12:00.732Z,4.30
2017-11-03T06:14:31.553Z,4.63
2017-11-03T06:17:02.461Z,3.50
2017-11-03T06:19:32.884Z,3.47
2017-11-03T06:22:03.253Z,6.53
2017-11-03T06:24:33.675Z,4.23
2017-11-03T06:27:04.070Z,3.60
2017-11-03T06:29:34.501Z,3.50
2017-11-03T06:32:04.896Z,3.17
2017-11-03T06:34:36.058Z,2.77
2017-11-03T06:37:06.482Z,2.47
2017-11-03T06:39:36.876Z,2.63
2017-11-03T06:42:08.053Z,2.40
2017-11-03T06:44:38.694Z,2.60
2017-11-03T06:47:09.091Z,3.53
2017-11-03T06:49:40.693Z,2.07
2017-11-03T06:52:11.092Z,1.90
2017-11-03T06:54:41.504Z,1.90
2017-11-03T06:57:12.637Z,2.50
2017-11-03T06:59:43.844Z,1.83
2017-11-03T07:02:14.775Z,2.20
2017-11-03T07:04:45.189Z,2.07
2017-11-03T07:07:15.572Z,3.50
2017-11-03T07:09:46.704Z,2.57
2017-11-03T07:12:17.849Z,2.37
2017-11-03T07:14:49.497Z,2.27
2017-11-03T07:17:20.668Z,2.13
2017-11-03T07:19:51.466Z,2.03
2017-11-03T07:22:21.841Z,2.90
2017-11-03T07:24:52.239Z,2.70
2017-11-03T07:27:23.384Z,2.47
2017-11-03T07:29:54.533Z,3.20
2017-11-03T07:32:26.228Z,2.40
2017-11-03T07:34:56.606Z,1.80
2017-11-03T07:37:27.775Z,5.80
2017-11-03T07:39:58.146Z,2.30
2017-11-03T07:42:28.552Z,2.50
2017-11-03T07:44:59.539Z,2.33
2017-11-03T07:47:30.697Z,4.00
2017-11-03T07:50:02.342Z,2.10
2017-11-03T07:52:33.505Z,2.13
2017-11-03T07:55:03.946Z,2.53
2017-11-03T07:57:34.321Z,4.97
2017-11-03T08:00:04.700Z,2.30
2017-11-03T08:02:37.164Z,3.33
2017-11-03T08:05:07.521Z,2.93
2017-11-03T08:07:37.912Z,3.03
2017-11-03T08:10:08.308Z,10.87
2017-11-03T08:12:39.461Z,4.00
2017-11-03T08:15:11.767Z,4.43
2017-11-03T08:17:42.145Z,4.23
2017-11-03T08:20:14.728Z,4.50
2017-11-03T08:22:45.885Z,5.20
2017-11-03T08:25:17.118Z,7.17
2017-11-03T08:27:48.368Z,5.83
2017-11-03T08:30:19.534Z,6.27
2017-11-03T08:32:49.985Z,3.80
2017-11-03T08:35:20.424Z,15.30
2017-11-03T08:37:50.837Z,5.80
2017-11-03T08:40:21.240Z,4.80
2017-11-03T08:42:51.672Z,5.17
2017-11-03T08:45:22.414Z,3.67
2017-11-03T08:47:52.796Z,4.30
2017-11-03T08:50:24.499Z,3.67
2017-11-03T08:52:54.882Z,3.77
2017-11-03T08:55:26.057Z,4.00
2017-11-03T08:57:56.465Z,4.63
2017-11-03T09:00:27.658Z,13.73
2017-11-03T09:02:58.415Z,4.90
2017-11-03T09:05:28.801Z,4.80
2017-11-03T09:07:59.195Z,3.20
2017-11-03T09:10:29.608Z,2.97
2017-11-03T09:13:00.766Z,3.87
2017-11-03T09:15:31.936Z,4.13
2017-11-03T09:18:02.352Z,2.10
2017-11-03T09:20:33.058Z,10.53
2017-11-03T09:23:04.222Z,1.77
2017-11-03T09:25:34.665Z,2.80
2017-11-03T09:28:06.036Z,2.10
2017-11-03T09:30:36.470Z,2.57
2017-11-03T09:33:07.067Z,4.20
2017-11-03T09:35:37.492Z,4.93
2017-11-03T09:38:08.268Z,6.73
2017-11-03T09:40:38.651Z,2.87
2017-11-03T09:43:09.068Z,2.57
2017-11-03T09:45:39.513Z,4.47
2017-11-03T09:48:09.928Z,4.23
2017-11-03T09:50:40.716Z,3.57
2017-11-03T09:53:11.134Z,5.87
2017-11-03T09:55:41.547Z,3.47
2017-11-03T09:58:11.921Z,3.90
2017-11-03T10:00:43.131Z,6.23
2017-11-03T10:03:13.995Z,2.80
2017-11-03T10:05:45.257Z,3.47
2017-11-03T10:08:15.824Z,2.40
2017-11-03T10:10:46.228Z,3.13
2017-11-03T10:13:16.927Z,4.87
2017-11-03T10:15:47.318Z,2.83
2017-11-03T10:18:17.891Z,7.03
2017-11-03T10:20:49.889Z,4.93
2017-11-03T10:23:20.329Z,6.87
2017-11-03T10:25:50.972Z,6.90
2017-11-03T10:28:21.331Z,7.17
2017-11-03T10:30:52.549Z,4.00
2017-11-03T10:33:22.954Z,8.50
2017-11-03T10:35:53.375Z,4.27
2017-11-03T10:38:24.089Z,3.97
2017-11-03T10:40:54.559Z,5.50
2017-11-03T10:43:25.090Z,5.37
2017-11-03T10:45:55.533Z,6.73
2017-11-03T10:48:25.980Z,10.13
2017-11-03T10:50:57.701Z,6.27
2017-11-03T10:53:28.099Z,6.00
2017-11-03T10:55:58.531Z,10.40
2017-11-03T10:58:28.942Z,4.27
2017-11-03T11:00:59.377Z,6.63
2017-11-03T11:03:29.819Z,9.30
2017-11-03T11:06:00.200Z,10.93
2017-11-03T11:08:31.830Z,11.77
2017-11-03T11:11:02.239Z,12.67
2017-11-03T11:13:32.612Z,13.70
2017-11-03T11:16:03.016Z,14.07
2017-11-03T11:18:34.167Z,9.80
2017-11-03T11:21:05.798Z,28.57
2017-11-03T11:23:36.205Z,17.77
2017-11-03T11:26:07.018Z,12.60
2017-11-03T11:28:37.412Z,13.00
2017-11-03T11:31:08.637Z,18.87
2017-11-03T11:33:39.003Z,17.60
2017-11-03T11:36:09.403Z,13.67
2017-11-03T11:38:40.930Z,13.60
2017-11-03T11:41:11.306Z,13.50
2017-11-03T11:43:41.721Z,16.43
2017-11-03T11:46:12.140Z,11.00
2017-11-03T11:48:43.348Z,11.93
2017-11-03T11:51:13.925Z,13.70
2017-11-03T11:53:44.307Z,10.40
2017-11-03T11:56:15.172Z,12.03
2017-11-03T11:58:46.412Z,14.13
2017-11-03T12:01:17.775Z,14.60
2017-11-03T12:03:49.016Z,11.73
2017-11-03T12:06:20.199Z,8.20
2017-11-03T12:08:50.917Z,15.00
2017-11-03T12:11:21.328Z,11.27
2017-11-03T12:13:51.741Z,9.93
2017-11-03T12:16:22.926Z,21.97
2017-11-03T12:18:53.350Z,10.40
2017-11-03T12:21:24.232Z,11.53
2017-11-03T12:23:54.644Z,14.33
2017-11-03T12:26:26.043Z,8.30
2017-11-03T12:28:56.450Z,6.93
2017-11-03T12:31:27.605Z,7.50
2017-11-03T12:33:58.053Z,6.47
2017-11-03T12:36:28.470Z,6.20
2017-11-03T12:38:59.212Z,5.73
2017-11-03T12:41:29.748Z,8.43
2017-11-03T12:44:00.162Z,5.80
2017-11-03T12:46:30.566Z,6.10
2017-11-03T12:49:01.870Z,5.73
2017-11-03T12:51:32.342Z,9.60
2017-11-03T12:54:03.561Z,8.83
2017-11-03T12:56:34.210Z,11.77
2017-11-03T12:59:04.807Z,13.33
2017-11-03T13:01:36.056Z,9.63
2017-11-03T13:04:06.475Z,7.87
2017-11-03T13:06:36.926Z,11.40
2017-11-03T13:09:08.268Z,11.80
2017-11-03T13:11:39.515Z,6.20
2017-11-03T13:14:10.849Z,10.80
2017-11-03T13:16:41.547Z,8.33
2017-11-03T13:19:12.235Z,7.80
2017-11-03T13:21:43.462Z,9.37
2017-11-03T13:24:14.100Z,14.73
2017-11-03T13:26:45.331Z,17.37
2017-11-03T13:29:17.040Z,12.33
2017-11-03T13:31:47.711Z,8.77
2017-11-03T13:34:18.197Z,13.47
2017-11-03T13:36:48.790Z,11.10
2017-11-03T13:39:20.476Z,9.83
2017-11-03T13:41:51.735Z,10.30
2017-11-03T13:44:22.237Z,13.57
2017-11-03T13:46:53.428Z,8.47
2017-11-03T13:49:23.827Z,11.93
2017-11-03T13:51:55.041Z,12.83
2017-11-03T13:54:25.492Z,17.70
2017-11-03T13:56:56.948Z,8.70
2017-11-03T13:59:28.148Z,13.10
2017-11-03T14:01:58.544Z,13.53
2017-11-03T14:04:28.980Z,10.80
2017-11-03T14:06:59.409Z,7.17
2017-11-03T14:09:30.100Z,8.53
2017-11-03T14:12:01.283Z,9.37
2017-11-03T14:14:31.996Z,11.23
2017-11-03T14:17:02.498Z,7.50
2017-11-03T14:19:33.697Z,12.33
2017-11-03T14:22:04.098Z,4.47
2017-11-03T14:24:34.489Z,8.03
2017-11-03T14:27:05.180Z,7.53
2017-11-03T14:29:35.621Z,12.93
2017-11-03T14:32:06.063Z,4.97
2017-11-03T14:34:36.512Z,6.87
2017-11-03T14:37:07.672Z,7.00
2017-11-03T14:39:38.504Z,5.77
2017-11-03T14:42:09.132Z,8.47
2017-11-03T14:44:44.876Z,10.63
2017-11-03T14:47:15.331Z,9.50
2017-11-03T14:49:47.104Z,5.30
2017-11-03T14:52:17.803Z,5.60
2017-11-03T14:54:48.283Z,5.13
2017-11-03T14:57:19.034Z,4.63
2017-11-03T14:59:50.235Z,4.17
2017-11-03T15:02:20.896Z,5.20
2017-11-03T15:04:52.278Z,12.23
2017-11-03T15:07:23.448Z,5.37
2017-11-03T15:09:54.320Z,6.00
2017-11-03T15:12:24.960Z,6.13
2017-11-03T15:14:56.337Z,15.30
2017-11-03T15:17:27.606Z,8.63
2017-11-03T15:19:57.993Z,9.37
2017-11-03T15:22:28.412Z,6.40
2017-11-03T15:24:58.815Z,4.47
2017-11-03T15:27:29.617Z,7.63
2017-11-03T15:30:00.081Z,6.33
2017-11-03T15:32:30.518Z,4.20
2017-11-03T15:35:00.935Z,6.20
2017-11-03T15:37:31.449Z,11.50
2017-11-03T15:40:02.290Z,9.10
2017-11-03T15:42:33.031Z,7.57
2017-11-03T15:45:03.879Z,7.97
2017-11-03T15:47:34.344Z,4.30
2017-11-03T15:50:05.484Z,10.97
2017-11-03T15:52:36.682Z,13.13
2017-11-03T15:55:07.100Z,7.20
2017-11-03T15:57:37.835Z,4.90
2017-11-03T16:00:08.255Z,6.63
2017-11-03T16:02:38.640Z,5.37
2017-11-03T16:05:09.795Z,6.07
2017-11-03T16:07:40.946Z,11.70
2017-11-03T16:10:12.417Z,11.43
2017-11-03T16:12:42.848Z,4.73
2017-11-03T16:15:13.584Z,4.30
2017-11-03T16:17:44.008Z,8.53
2017-11-03T16:20:14.411Z,8.03
2017-11-03T16:22:44.793Z,11.67
2017-11-03T16:25:15.175Z,15.33
2017-11-03T16:27:45.941Z,6.20
2017-11-03T16:30:16.345Z,12.30
2017-11-03T16:32:47.000Z,5.63
2017-11-03T16:35:17.739Z,6.70
2017-11-03T16:37:48.168Z,4.33
2017-11-03T16:40:18.556Z,7.70
2017-11-03T16:42:48.969Z,4.90
2017-11-03T16:45:19.826Z,5.13
2017-11-03T16:47:50.266Z,9.37
2017-11-03T16:50:20.664Z,10.60
2017-11-03T16:52:51.048Z,6.70
2017-11-03T16:55:21.444Z,4.07
2017-11-03T16:57:52.263Z,7.43
2017-11-03T17:00:23.183Z,5.63
2017-11-03T17:02:54.012Z,10.50
2017-11-03T17:05:25.169Z,8.93
2017-11-03T17:07:55.570Z,4.83
2017-11-03T17:10:26.755Z,4.37
2017-11-03T17:12:57.145Z,5.13
2017-11-03T17:15:28.613Z,5.57
2017-11-03T17:17:59.021Z,8.50
2017-11-03T17:20:30.270Z,12.90
2017-11-03T17:23:01.439Z,7.47
2017-11-03T17:25:31.837Z,8.90
2017-11-03T17:28:03.336Z,8.00
2017-11-03T17:30:33.734Z,11.10
2017-11-03T17:33:04.472Z,4.90
2017-11-03T17:35:34.879Z,6.17
2017-11-03T17:38:06.056Z,8.27
2017-11-03T17:40:36.480Z,12.43
2017-11-03T17:43:06.895Z,9.67
2017-11-03T17:45:37.677Z,9.27
2017-11-03T17:48:08.063Z,18.00
2017-11-03T17:50:38.443Z,3.87
2017-11-03T17:53:08.835Z,3.47
2017-11-03T17:55:39.209Z,6.10
2017-11-03T17:58:10.557Z,5.03
2017-11-03T18:00:41.756Z,6.70
2017-11-03T18:03:12.521Z,5.07
2017-11-03T18:05:42.894Z,6.67
2017-11-03T18:08:13.306Z,4.60
2017-11-03T18:10:44.004Z,4.10
2017-11-03T18:13:14.586Z,7.03
2017-11-03T18:15:45.302Z,9.10
2017-11-03T18:18:15.685Z,4.40
2017-11-03T18:20:46.038Z,8.17
2017-11-03T18:23:17.188Z,7.73
2017-11-03T18:25:47.599Z,6.77
2017-11-03T18:28:18.776Z,6.30
2017-11-03T18:30:49.167Z,6.33
2017-11-03T18:33:20.052Z,6.57
2017-11-03T18:35:50.448Z,7.47
2017-11-03T18:38:20.860Z,7.43
2017-11-03T18:40:52.014Z,8.60
2017-11-03T18:43:23.159Z,9.43
2017-11-03T18:45:53.589Z,8.63
2017-11-03T18:48:23.942Z,6.43
2017-11-03T18:50:54.704Z,4.83
2017-11-03T18:53:25.108Z,5.60
2017-11-03T18:55:55.528Z,4.80
2017-11-03T18:58:25.924Z,7.37
2017-11-03T19:00:57.077Z,8.57
2017-11-03T19:03:27.715Z,5.33
2017-11-03T19:05:58.091Z,7.00
2017-11-03T19:08:28.717Z,8.67
2017-11-03T19:10:59.127Z,9.73
2017-11-03T19:13:29.491Z,7.63
2017-11-03T19:16:01.087Z,5.33
2017-11-03T19:18:31.484Z,12.53
2017-11-03T19:21:03.073Z,9.30
2017-11-03T19:23:33.511Z,8.43
2017-11-03T19:26:04.101Z,4.90
2017-11-03T19:28:35.275Z,6.67
2017-11-03T19:31:05.651Z,10.03
2017-11-03T19:33:37.025Z,6.67
2017-11-03T19:36:07.431Z,12.27
2017-11-03T19:38:38.614Z,5.63
2017-11-03T19:41:09.063Z,8.23
2017-11-03T19:43:39.525Z,13.77
2017-11-03T19:46:11.144Z,8.87
2017-11-03T19:48:41.545Z,8.97
2017-11-03T19:51:12.265Z,6.53
2017-11-03T19:53:42.660Z,27.43
2017-11-03T19:56:13.805Z,11.80
2017-11-03T19:58:44.978Z,19.37
2017-11-03T20:01:15.350Z,15.80
2017-11-03T20:03:46.157Z,22.60
2017-11-03T20:06:16.539Z,19.07
2017-11-03T20:08:47.709Z,13.40
2017-11-03T20:11:18.108Z,20.93
2017-11-03T20:13:49.274Z,17.60
2017-11-03T20:16:19.662Z,18.50
2017-11-03T20:18:50.051Z,26.47
2017-11-03T20:21:20.697Z,14.63
2017-11-03T20:23:51.095Z,23.83
2017-11-03T20:26:21.513Z,15.47
2017-11-03T20:28:51.929Z,19.07
2017-11-03T20:31:23.088Z,17.13
2017-11-03T20:33:54.624Z,15.00
2017-11-03T20:36:25.857Z,12.90
2017-11-03T20:38:57.052Z,15.30
2017-11-03T20:41:27.463Z,17.10
2017-11-03T20:43:57.876Z,14.60
2017-11-03T20:46:28.305Z,15.73
2017-11-03T20:48:58.770Z,22.30
2017-11-03T20:51:29.737Z,27.37
2017-11-03T20:54:00.129Z,17.67
2017-11-03T20:56:30.514Z,14.67
2017-11-03T20:59:01.652Z,20.90
2017-11-03T21:01:32.829Z,21.80
2017-11-03T21:04:03.671Z,18.03
2017-11-03T21:06:34.029Z,16.90
2017-11-03T21:09:04.893Z,23.10
2017-11-03T21:11:36.070Z,16.53
2017-11-03T21:14:06.468Z,12.07
2017-11-03T21:16:36.845Z,17.47
2017-11-03T21:19:07.268Z,18.87
2017-11-03T21:21:37.918Z,14.47
2017-11-03T21:24:08.347Z,22.43
2017-11-03T21:26:38.746Z,17.30
2017-11-03T21:29:09.869Z,23.47
2017-11-03T21:31:40.261Z,22.60
2017-11-03T21:34:12.000Z,16.60
2017-11-03T21:36:42.409Z,18.00
2017-11-03T21:39:13.222Z,15.43
2017-11-03T21:41:43.602Z,12.93
2017-11-03T21:44:14.760Z,11.57
2017-11-03T21:46:45.179Z,19.93
2017-11-03T21:49:16.336Z,13.77
2017-11-03T21:51:47.233Z,13.77
2017-11-03T21:54:17.656Z,9.60
2017-11-03T21:56:48.049Z,7.87
2017-11-03T21:59:18.447Z,8.67
2017-11-03T22:01:48.814Z,9.53
2017-11-03T22:04:19.429Z,9.00
2017-11-03T22:06:49.839Z,7.87
2017-11-03T22:09:20.625Z,11.80
2017-11-03T22:11:51.035Z,11.57
2017-11-03T22:14:21.423Z,17.97
2017-11-03T22:16:51.827Z,12.40
2017-11-03T22:19:23.004Z,9.20
2017-11-03T22:21:53.744Z,15.30
2017-11-03T22:24:24.132Z,8.53
2017-11-03T22:26:55.527Z,13.47
2017-11-03T22:29:25.941Z,20.93
2017-11-03T22:31:56.440Z,16.63
2017-11-03T22:34:27.884Z,10.13
2017-11-03T22:36:59.128Z,19.17
2017-11-03T22:39:30.926Z,20.53
2017-11-03T22:42:01.373Z,20.13
2017-11-03T22:44:31.767Z,14.23
2017-11-03T22:47:02.149Z,12.10
2017-11-03T22:49:32.563Z,17.10
2017-11-03T22:52:03.332Z,15.50
2017-11-03T22:54:34.515Z,15.27
2017-11-03T22:57:05.378Z,12.57
2017-11-03T22:59:35.784Z,19.10
2017-11-03T23:02:06.246Z,17.93
2017-11-03T23:04:36.653Z,17.53
2017-11-03T23:07:07.071Z,16.00
2017-11-03T23:09:37.885Z,21.83
2017-11-03T23:12:08.275Z,22.43
2017-11-03T23:14:39.427Z,22.57
2017-11-03T23:17:10.581Z,22.67
2017-11-03T23:19:40.992Z,25.30
2017-11-03T23:22:12.685Z,32.33
2017-11-03T23:24:43.104Z,31.60
2017-11-03T23:27:13.940Z,27.67
2017-11-03T23:29:44.328Z,31.23
2017-11-03T23:32:15.482Z,32.37
2017-11-03T23:34:46.659Z,32.83
2017-11-03T23:37:17.092Z,27.40
2017-11-03T23:39:47.947Z,33.67
2017-11-03T23:42:18.332Z,24.50
2017-11-03T23:44:48.957Z,25.50
2017-11-03T23:47:19.379Z,20.80
2017-11-03T23:49:50.537Z,14.80
2017-11-03T23:52:21.383Z,25.03
2017-11-03T23:54:51.771Z,17.37
2017-11-03T23:57:23.363Z,14.60
2017-11-03T23:59:53.765Z,14.00
